Terminal Aerodrome Forecast
Issued by NWS Austin/San Antonio, TX

Home | Current Version | Previous Version | Text Only | Print | Product List | Glossary On
Versions: 1 2 3 4 5 6 7 8 9 10 11 12 13 14 15 16 17 18
000
FTUS44 KEWX 210528
TAFAUS
TAF
KAUS 210528Z 2106/2212 19009KT P6SM SCT250
     FM211300 20007KT P6SM SCT020 BKN200
     FM211600 21010KT P6SM SCT040 BKN200
     FM220000 35010KT P6SM BKN040=

USA.gov is the U.S. government's official web portal to all federal, state and local government web resources and services.